sensor_id;sensor_type;location;lat;lon;timestamp;pressure;altitude;pressure_sealevel;temperature;humidity
71764;BME280;59602;52.142;5.408;2023-02-04T00:00:10;103402.53;;;8.25;79.10
71764;BME280;59602;52.142;5.408;2023-02-04T00:02:39;103406.06;;;8.26;79.22
71764;BME280;59602;52.142;5.408;2023-02-04T00:05:07;103407.97;;;8.25;79.33
71764;BME280;59602;52.142;5.408;2023-02-04T00:07:36;103414.50;;;8.24;79.28
71764;BME280;59602;52.142;5.408;2023-02-04T00:10:05;103412.88;;;8.23;78.99
71764;BME280;59602;52.142;5.408;2023-02-04T00:12:32;103411.56;;;8.21;79.24
71764;BME280;59602;52.142;5.408;2023-02-04T00:14:59;103409.97;;;8.20;79.56
71764;BME280;59602;52.142;5.408;2023-02-04T00:17:26;103412.69;;;8.20;79.30
71764;BME280;59602;52.142;5.408;2023-02-04T00:19:52;103414.56;;;8.19;79.77
71764;BME280;59602;52.142;5.408;2023-02-04T00:22:19;103423.03;;;8.18;79.69
71764;BME280;59602;52.142;5.408;2023-02-04T00:24:46;103431.44;;;8.16;79.94
71764;BME280;59602;52.142;5.408;2023-02-04T00:27:15;103428.75;;;8.16;79.94
71764;BME280;59602;52.142;5.408;2023-02-04T00:29:41;103427.94;;;8.16;80.26
71764;BME280;59602;52.142;5.408;2023-02-04T00:32:08;103436.06;;;8.16;80.39
71764;BME280;59602;52.142;5.408;2023-02-04T00:34:35;103432.84;;;8.14;80.51
71764;BME280;59602;52.142;5.408;2023-02-04T00:37:01;103436.66;;;8.13;80.64
71764;BME280;59602;52.142;5.408;2023-02-04T00:39:28;103438.88;;;8.10;80.78
71764;BME280;59602;52.142;5.408;2023-02-04T00:41:55;103433.75;;;8.09;80.87
71764;BME280;59602;52.142;5.408;2023-02-04T00:44:21;103435.16;;;8.06;81.39
71764;BME280;59602;52.142;5.408;2023-02-04T00:46:48;103434.63;;;8.04;81.83
71764;BME280;59602;52.142;5.408;2023-02-04T00:49:14;103432.50;;;8.01;81.64
71764;BME280;59602;52.142;5.408;2023-02-04T00:51:41;103433.41;;;7.97;81.87
71764;BME280;59602;52.142;5.408;2023-02-04T00:54:11;103438.81;;;7.97;82.16
71764;BME280;59602;52.142;5.408;2023-02-04T00:56:40;103440.53;;;7.93;82.44
71764;BME280;59602;52.142;5.408;2023-02-04T00:59:06;103440.53;;;7.93;82.63
71764;BME280;59602;52.142;5.408;2023-02-04T01:01:34;103443.03;;;7.89;82.84
71764;BME280;59602;52.142;5.408;2023-02-04T01:04:01;103447.94;;;7.87;83.12
71764;BME280;59602;52.142;5.408;2023-02-04T01:06:27;103443.69;;;7.81;82.71
71764;BME280;59602;52.142;5.408;2023-02-04T01:08:54;103451.31;;;7.79;83.29
71764;BME280;59602;52.142;5.408;2023-02-04T01:11:20;103454.34;;;7.77;83.58
71764;BME280;59602;52.142;5.408;2023-02-04T01:13:47;103456.53;;;7.75;83.52
71764;BME280;59602;52.142;5.408;2023-02-04T01:16:15;103459.22;;;7.75;83.88
71764;BME280;59602;52.142;5.408;2023-02-04T01:18:41;103467.66;;;7.74;83.76
71764;BME280;59602;52.142;5.408;2023-02-04T01:21:08;103470.06;;;7.75;84.01
71764;BME280;59602;52.142;5.408;2023-02-04T01:23:35;103472.78;;;7.75;84.35
71764;BME280;59602;52.142;5.408;2023-02-04T01:26:02;103470.34;;;7.74;84.49
71764;BME280;59602;52.142;5.408;2023-02-04T01:28:28;103476.06;;;7.72;84.48
71764;BME280;59602;52.142;5.408;2023-02-04T01:30:55;103475.06;;;7.68;84.92
71764;BME280;59602;52.142;5.408;2023-02-04T01:33:21;103475.84;;;7.68;84.81
71764;BME280;59602;52.142;5.408;2023-02-04T01:35:48;103490.19;;;7.69;84.83
71764;BME280;59602;52.142;5.408;2023-02-04T01:38:15;103483.97;;;7.68;85.29
71764;BME280;59602;52.142;5.408;2023-02-04T01:40:42;103491.78;;;7.70;85.14
71764;BME280;59602;52.142;5.408;2023-02-04T01:43:09;103492.38;;;7.67;85.52
71764;BME280;59602;52.142;5.408;2023-02-04T01:45:37;103501.63;;;7.66;85.62
71764;BME280;59602;52.142;5.408;2023-02-04T01:48:05;103496.50;;;7.64;85.80
71764;BME280;59602;52.142;5.408;2023-02-04T01:50:33;103502.19;;;7.63;85.79
71764;BME280;59602;52.142;5.408;2023-02-04T01:53:00;103506.81;;;7.62;86.01
71764;BME280;59602;52.142;5.408;2023-02-04T01:55:29;103509.00;;;7.60;86.20
71764;BME280;59602;52.142;5.408;2023-02-04T01:57:56;103522.03;;;7.58;86.20
71764;BME280;59602;52.142;5.408;2023-02-04T02:00:28;103521.75;;;7.60;86.41
71764;BME280;59602;52.142;5.408;2023-02-04T02:02:57;103516.59;;;7.58;86.22
71764;BME280;59602;52.142;5.408;2023-02-04T02:05:27;103519.84;;;7.60;86.61
71764;BME280;59602;52.142;5.408;2023-02-04T02:07:57;103522.53;;;7.60;86.77
71764;BME280;59602;52.142;5.408;2023-02-04T02:10:25;103527.44;;;7.58;86.78
71764;BME280;59602;52.142;5.408;2023-02-04T02:12:53;103536.66;;;7.57;87.03
71764;BME280;59602;52.142;5.408;2023-02-04T02:15:21;103537.75;;;7.56;87.11
71764;BME280;59602;52.142;5.408;2023-02-04T02:17:48;103530.75;;;7.55;87.29
71764;BME280;59602;52.142;5.408;2023-02-04T02:20:16;103527.50;;;7.53;87.76
71764;BME280;59602;52.142;5.408;2023-02-04T02:22:59;103532.13;;;7.53;87.64
71764;BME280;59602;52.142;5.408;2023-02-04T02:25:28;103530.50;;;7.52;87.75
71764;BME280;59602;52.142;5.408;2023-02-04T02:27:56;103526.19;;;7.51;87.78
71764;BME280;59602;52.142;5.408;2023-02-04T02:30:23;103534.59;;;7.49;88.19
71764;BME280;59602;52.142;5.408;2023-02-04T02:32:51;103539.50;;;7.47;88.02
71764;BME280;59602;52.142;5.408;2023-02-04T02:35:18;103536.00;;;7.46;88.36
71764;BME280;59602;52.142;5.408;2023-02-04T02:37:44;103539.78;;;7.45;88.64
71764;BME280;59602;52.142;5.408;2023-02-04T02:40:12;103533.06;;;7.43;88.81
71764;BME280;59602;52.142;5.408;2023-02-04T02:42:39;103531.16;;;7.43;88.85
71764;BME280;59602;52.142;5.408;2023-02-04T02:45:14;103530.66;;;7.41;88.83
71764;BME280;59602;52.142;5.408;2023-02-04T02:47:43;103522.53;;;7.41;88.77
71764;BME280;59602;52.142;5.408;2023-02-04T02:50:14;103525.81;;;7.38;88.96
71764;BME280;59602;52.142;5.408;2023-02-04T02:52:41;103526.69;;;7.34;89.15
71764;BME280;59602;52.142;5.408;2023-02-04T02:55:17;103535.09;;;7.32;89.15
71764;BME280;59602;52.142;5.408;2023-02-04T02:57:45;103535.38;;;7.31;89.47
71764;BME280;59602;52.142;5.408;2023-02-04T03:00:17;103535.69;;;7.29;89.40
71764;BME280;59602;52.142;5.408;2023-02-04T03:03:06;103533.25;;;7.27;89.41
71764;BME280;59602;52.142;5.408;2023-02-04T03:05:40;103536.53;;;7.24;89.36
71764;BME280;59602;52.142;5.408;2023-02-04T03:08:09;103544.41;;;7.21;89.29
71764;BME280;59602;52.142;5.408;2023-02-04T03:10:37;103539.88;;;7.16;89.31
71764;BME280;59602;52.142;5.408;2023-02-04T03:13:04;103549.09;;;7.15;88.98
71764;BME280;59602;52.142;5.408;2023-02-04T03:15:32;103550.50;;;7.13;89.28
71764;BME280;59602;52.142;5.408;2023-02-04T03:17:59;103545.34;;;7.11;89.66
71764;BME280;59602;52.142;5.408;2023-02-04T03:20:29;103547.53;;;7.09;89.66
71764;BME280;59602;52.142;5.408;2023-02-04T03:22:59;103546.22;;;7.06;89.64
71764;BME280;59602;52.142;5.408;2023-02-04T03:25:26;103556.53;;;7.04;89.99
71764;BME280;59602;52.142;5.408;2023-02-04T03:27:56;103554.09;;;7.03;90.10
71764;BME280;59602;52.142;5.408;2023-02-04T03:30:24;103554.41;;;7.01;89.55
71764;BME280;59602;52.142;5.408;2023-02-04T03:32:50;103556.06;;;6.97;89.58
71764;BME280;59602;52.142;5.408;2023-02-04T03:35:19;103556.63;;;6.94;89.80
71764;BME280;59602;52.142;5.408;2023-02-04T03:37:45;103555.31;;;6.92;89.88
71764;BME280;59602;52.142;5.408;2023-02-04T03:40:13;103554.50;;;6.91;90.34
71764;BME280;59602;52.142;5.408;2023-02-04T03:42:40;103558.00;;;6.92;90.14
71764;BME280;59602;52.142;5.408;2023-02-04T03:45:07;103566.44;;;6.90;90.37
71764;BME280;59602;52.142;5.408;2023-02-04T03:47:34;103560.19;;;6.90;90.44
71764;BME280;59602;52.142;5.408;2023-02-04T03:50:01;103559.66;;;6.88;90.44
71764;BME280;59602;52.142;5.408;2023-02-04T03:52:28;103564.59;;;6.85;90.00
71764;BME280;59602;52.142;5.408;2023-02-04T03:54:55;103570.34;;;6.79;89.15
71764;BME280;59602;52.142;5.408;2023-02-04T03:57:21;103567.38;;;6.75;89.49
71764;BME280;59602;52.142;5.408;2023-02-04T03:59:48;103567.09;;;6.77;89.83
71764;BME280;59602;52.142;5.408;2023-02-04T04:02:14;103571.69;;;6.76;89.91
71764;BME280;59602;52.142;5.408;2023-02-04T04:04:41;103562.25;;;6.74;89.57
71764;BME280;59602;52.142;5.408;2023-02-04T04:07:07;103558.22;;;6.71;89.24
71764;BME280;59602;52.142;5.408;2023-02-04T04:09:34;103559.84;;;6.72;89.33
71764;BME280;59602;52.142;5.408;2023-02-04T04:12:00;103556.03;;;6.73;89.97
71764;BME280;59602;52.142;5.408;2023-02-04T04:14:29;103561.97;;;6.75;90.14
71764;BME280;59602;52.142;5.408;2023-02-04T04:16:55;103561.91;;;6.80;90.46
71764;BME280;59602;52.142;5.408;2023-02-04T04:19:22;103574.88;;;6.83;90.38
71764;BME280;59602;52.142;5.408;2023-02-04T04:21:50;103572.44;;;6.82;90.37
71764;BME280;59602;52.142;5.408;2023-02-04T04:24:16;103572.44;;;6.82;90.29
71764;BME280;59602;52.142;5.408;2023-02-04T04:26:43;103571.06;;;6.84;90.69
71764;BME280;59602;52.142;5.408;2023-02-04T04:29:09;103570.78;;;6.86;90.76
71764;BME280;59602;52.142;5.408;2023-02-04T04:31:36;103576.72;;;6.88;90.90
71764;BME280;59602;52.142;5.408;2023-02-04T04:34:03;103575.09;;;6.87;91.16
71764;BME280;59602;52.142;5.408;2023-02-04T04:36:29;103567.78;;;6.88;90.91
71764;BME280;59602;52.142;5.408;2023-02-04T04:38:56;103580.50;;;6.87;90.93
71764;BME280;59602;52.142;5.408;2023-02-04T04:41:22;103573.50;;;6.86;91.07
71764;BME280;59602;52.142;5.408;2023-02-04T04:43:49;103574.56;;;6.85;90.98
71764;BME280;59602;52.142;5.408;2023-02-04T04:46:16;103588.41;;;6.83;91.04
71764;BME280;59602;52.142;5.408;2023-02-04T04:48:42;103587.88;;;6.81;90.86
71764;BME280;59602;52.142;5.408;2023-02-04T04:51:09;103593.28;;;6.81;91.04
71764;BME280;59602;52.142;5.408;2023-02-04T04:53:35;103590.84;;;6.80;91.12
71764;BME280;59602;52.142;5.408;2023-02-04T04:56:02;103591.13;;;6.78;91.16
71764;BME280;59602;52.142;5.408;2023-02-04T04:58:28;103593.03;;;6.78;91.39
71764;BME280;59602;52.142;5.408;2023-02-04T05:00:55;103596.53;;;6.78;91.36
71764;BME280;59602;52.142;5.408;2023-02-04T05:03:24;103586.81;;;6.77;91.31
71764;BME280;59602;52.142;5.408;2023-02-04T05:05:50;103584.13;;;6.77;91.51
71764;BME280;59602;52.142;5.408;2023-02-04T05:08:17;103584.13;;;6.77;91.63
71764;BME280;59602;52.142;5.408;2023-02-04T05:10:44;103581.16;;;6.79;91.44
71764;BME280;59602;52.142;5.408;2023-02-04T05:13:11;103574.09;;;6.78;91.26
71764;BME280;59602;52.142;5.408;2023-02-04T05:15:38;103586.81;;;6.77;91.36
71764;BME280;59602;52.142;5.408;2023-02-04T05:18:06;103594.16;;;6.72;91.17
71764;BME280;59602;52.142;5.408;2023-02-04T05:20:32;103595.81;;;6.73;91.00
71764;BME280;59602;52.142;5.408;2023-02-04T05:22:59;103591.19;;;6.73;91.21
71764;BME280;59602;52.142;5.408;2023-02-04T05:25:27;103601.75;;;6.70;91.24
71764;BME280;59602;52.142;5.408;2023-02-04T05:27:54;103599.34;;;6.68;91.21
71764;BME280;59602;52.142;5.408;2023-02-04T05:30:21;103599.34;;;6.68;91.34
71764;BME280;59602;52.142;5.408;2023-02-04T05:32:47;103599.91;;;6.65;91.28
71764;BME280;59602;52.142;5.408;2023-02-04T05:35:14;103600.22;;;6.63;91.32
71764;BME280;59602;52.142;5.408;2023-02-04T05:37:40;103593.47;;;6.61;91.54
71764;BME280;59602;52.142;5.408;2023-02-04T05:40:07;103594.56;;;6.60;91.40
71764;BME280;59602;52.142;5.408;2023-02-04T05:42:34;103600.75;;;6.60;91.51
71764;BME280;59602;52.142;5.408;2023-02-04T05:45:01;103603.25;;;6.57;91.34
71764;BME280;59602;52.142;5.408;2023-02-04T05:47:27;103601.91;;;6.54;91.01
71764;BME280;59602;52.142;5.408;2023-02-04T05:49:54;103603.25;;;6.52;91.13
71764;BME280;59602;52.142;5.408;2023-02-04T05:52:21;103601.66;;;6.51;91.04
71764;BME280;59602;52.142;5.408;2023-02-04T05:54:48;103600.03;;;6.50;91.06
71764;BME280;59602;52.142;5.408;2023-02-04T05:57:15;103608.44;;;6.48;91.08
71764;BME280;59602;52.142;5.408;2023-02-04T05:59:41;103613.06;;;6.48;91.25
71764;BME280;59602;52.142;5.408;2023-02-04T06:02:08;103607.13;;;6.46;91.34
71764;BME280;59602;52.142;5.408;2023-02-04T06:04:34;103611.69;;;6.45;91.49
71764;BME280;59602;52.142;5.408;2023-02-04T06:07:01;103611.69;;;6.45;91.37
71764;BME280;59602;52.142;5.408;2023-02-04T06:09:28;103616.28;;;6.44;91.62
71764;BME280;59602;52.142;5.408;2023-02-04T06:11:55;103627.09;;;6.44;91.58
71764;BME280;59602;52.142;5.408;2023-02-04T06:14:23;103632.25;;;6.46;91.78
71764;BME280;59602;52.142;5.408;2023-02-04T06:16:50;103636.84;;;6.46;91.80
71764;BME280;59602;52.142;5.408;2023-02-04T06:19:17;103642.25;;;6.46;91.66
71764;BME280;59602;52.142;5.408;2023-02-04T06:21:43;103641.09;;;6.52;91.91
71764;BME280;59602;52.142;5.408;2023-02-04T06:24:10;103641.63;;;6.54;92.04
71764;BME280;59602;52.142;5.408;2023-02-04T06:26:37;103648.13;;;6.53;92.30
71764;BME280;59602;52.142;5.408;2023-02-04T06:29:04;103645.44;;;6.53;92.17
71764;BME280;59602;52.142;5.408;2023-02-04T06:31:31;103650.56;;;6.54;92.15
71764;BME280;59602;52.142;5.408;2023-02-04T06:33:59;103653.53;;;6.53;92.21
71764;BME280;59602;52.142;5.408;2023-02-04T06:36:25;103668.44;;;6.50;92.34
71764;BME280;59602;52.142;5.408;2023-02-04T06:38:52;103666.00;;;6.49;92.14
71764;BME280;59602;52.142;5.408;2023-02-04T06:41:18;103669.22;;;6.51;92.26
71764;BME280;59602;52.142;5.408;2023-02-04T06:43:45;103679.78;;;6.52;92.31
71764;BME280;59602;52.142;5.408;2023-02-04T06:46:11;103682.47;;;6.52;91.95
71764;BME280;59602;52.142;5.408;2023-02-04T06:48:38;103680.56;;;6.53;92.27
71764;BME280;59602;52.142;5.408;2023-02-04T06:51:05;103695.69;;;6.54;92.42
71764;BME280;59602;52.142;5.408;2023-02-04T06:53:31;103697.31;;;6.55;92.00
71764;BME280;59602;52.142;5.408;2023-02-04T06:55:58;103698.91;;;6.56;92.36
71764;BME280;59602;52.142;5.408;2023-02-04T06:58:25;103703.78;;;6.54;92.37
71764;BME280;59602;52.142;5.408;2023-02-04T07:00:51;103715.72;;;6.53;92.25
71764;BME280;59602;52.142;5.408;2023-02-04T07:03:18;103706.50;;;6.54;92.63
71764;BME280;59602;52.142;5.408;2023-02-04T07:05:45;103712.75;;;6.54;92.54
71764;BME280;59602;52.142;5.408;2023-02-04T07:08:11;103712.75;;;6.54;92.76
71764;BME280;59602;52.142;5.408;2023-02-04T07:10:38;103719.75;;;6.55;92.55
71764;BME280;59602;52.142;5.408;2023-02-04T07:13:04;103717.84;;;6.56;92.40
71764;BME280;59602;52.142;5.408;2023-02-04T07:15:31;103724.88;;;6.57;92.73
71764;BME280;59602;52.142;5.408;2023-02-04T07:17:58;103718.94;;;6.55;92.67
71764;BME280;59602;52.142;5.408;2023-02-04T07:20:25;103728.13;;;6.54;92.69
71764;BME280;59602;52.142;5.408;2023-02-04T07:22:52;103720.00;;;6.54;92.27
71764;BME280;59602;52.142;5.408;2023-02-04T07:25:18;103725.41;;;6.54;93.03
71764;BME280;59602;52.142;5.408;2023-02-04T07:27:45;103723.56;;;6.54;92.98
71764;BME280;59602;52.142;5.408;2023-02-04T07:30:12;103725.16;;;6.55;92.70
71764;BME280;59602;52.142;5.408;2023-02-04T07:32:38;103727.59;;;6.57;92.91
71764;BME280;59602;52.142;5.408;2023-02-04T07:35:05;103729.97;;;6.58;92.70
71764;BME280;59602;52.142;5.408;2023-02-04T07:37:32;103734.88;;;6.56;92.95
71764;BME280;59602;52.142;5.408;2023-02-04T07:39:59;103734.06;;;6.56;92.75
71764;BME280;59602;52.142;5.408;2023-02-04T07:42:25;103738.66;;;6.55;92.68
71764;BME280;59602;52.142;5.408;2023-02-04T07:44:52;103744.88;;;6.56;92.69
71764;BME280;59602;52.142;5.408;2023-02-04T07:47:18;103750.53;;;6.59;93.03
71764;BME280;59602;52.142;5.408;2023-02-04T07:49:45;103752.16;;;6.60;92.96
71764;BME280;59602;52.142;5.408;2023-02-04T07:52:12;103752.69;;;6.62;93.32
71764;BME280;59602;52.142;5.408;2023-02-04T07:54:38;103752.94;;;6.66;92.88
71764;BME280;59602;52.142;5.408;2023-02-04T07:57:05;103749.44;;;6.65;92.94
71764;BME280;59602;52.142;5.408;2023-02-04T08:00:09;103757.50;;;6.71;93.40
71764;BME280;59602;52.142;5.408;2023-02-04T08:03:15;103766.16;;;6.73;93.44
71764;BME280;59602;52.142;5.408;2023-02-04T08:06:06;103770.97;;;6.76;93.54
71764;BME280;59602;52.142;5.408;2023-02-04T08:08:33;103771.50;;;6.78;93.35
71764;BME280;59602;52.142;5.408;2023-02-04T08:11:01;103774.75;;;6.80;93.31
71764;BME280;59602;52.142;5.408;2023-02-04T08:13:27;103775.28;;;6.82;93.51
71764;BME280;59602;52.142;5.408;2023-02-04T08:15:54;103781.75;;;6.86;93.09
71764;BME280;59602;52.142;5.408;2023-02-04T08:18:21;103790.09;;;6.90;93.52
71764;BME280;59602;52.142;5.408;2023-02-04T08:20:50;103787.38;;;6.90;93.64
71764;BME280;59602;52.142;5.408;2023-02-04T08:23:17;103786.03;;;6.92;93.78
71764;BME280;59602;52.142;5.408;2023-02-04T08:25:45;103790.06;;;6.95;93.73
71764;BME280;59602;52.142;5.408;2023-02-04T08:28:11;103794.09;;;6.97;93.54
71764;BME280;59602;52.142;5.408;2023-02-04T08:30:38;103789.22;;;6.99;93.37
71764;BME280;59602;52.142;5.408;2023-02-04T08:33:04;103791.63;;;7.01;93.52
71764;BME280;59602;52.142;5.408;2023-02-04T08:35:31;103800.28;;;7.03;93.65
71764;BME280;59602;52.142;5.408;2023-02-04T08:37:58;103802.13;;;7.07;93.69
71764;BME280;59602;52.142;5.408;2023-02-04T08:40:24;103808.91;;;7.10;93.51
71764;BME280;59602;52.142;5.408;2023-02-04T08:42:51;103806.69;;;7.12;93.38
71764;BME280;59602;52.142;5.408;2023-02-04T08:45:17;103801.53;;;7.16;93.40
71764;BME280;59602;52.142;5.408;2023-02-04T08:47:44;103809.59;;;7.21;93.25
71764;BME280;59602;52.142;5.408;2023-02-04T08:50:11;103800.13;;;7.23;93.05
71764;BME280;59602;52.142;5.408;2023-02-04T08:52:37;103799.56;;;7.26;93.45
71764;BME280;59602;52.142;5.408;2023-02-04T08:55:04;103807.09;;;7.30;92.94
71764;BME280;59602;52.142;5.408;2023-02-04T08:57:31;103814.38;;;7.34;92.87
71764;BME280;59602;52.142;5.408;2023-02-04T08:59:59;103812.72;;;7.38;93.04
71764;BME280;59602;52.142;5.408;2023-02-04T09:02:26;103817.28;;;7.43;92.80
71764;BME280;59602;52.142;5.408;2023-02-04T09:04:52;103816.47;;;7.42;92.83
71764;BME280;59602;52.142;5.408;2023-02-04T09:07:19;103822.41;;;7.44;92.74
71764;BME280;59602;52.142;5.408;2023-02-04T09:09:47;103832.97;;;7.46;92.67
71764;BME280;59602;52.142;5.408;2023-02-04T09:12:17;103823.47;;;7.48;92.17
71764;BME280;59602;52.142;5.408;2023-02-04T09:14:44;103820.47;;;7.50;92.07
71764;BME280;59602;52.142;5.408;2023-02-04T09:17:11;103815.56;;;7.52;91.91
71764;BME280;59602;52.142;5.408;2023-02-04T09:19:37;103818.81;;;7.54;91.88
71764;BME280;59602;52.142;5.408;2023-02-04T09:22:04;103833.41;;;7.58;91.85
71764;BME280;59602;52.142;5.408;2023-02-04T09:24:30;103823.91;;;7.61;91.60
71764;BME280;59602;52.142;5.408;2023-02-04T09:26:57;103826.06;;;7.64;91.50
71764;BME280;59602;52.142;5.408;2023-02-04T09:29:23;103828.97;;;7.67;91.40
71764;BME280;59602;52.142;5.408;2023-02-04T09:31:50;103826.53;;;7.71;91.28
71764;BME280;59602;52.142;5.408;2023-02-04T09:34:18;103830.56;;;7.74;90.72
71764;BME280;59602;52.142;5.408;2023-02-04T09:36:44;103820.53;;;7.74;90.74
71764;BME280;59602;52.142;5.408;2023-02-04T09:39:11;103825.91;;;7.79;90.72
71764;BME280;59602;52.142;5.408;2023-02-04T09:41:38;103831.81;;;7.81;90.73
71764;BME280;59602;52.142;5.408;2023-02-04T09:44:13;103829.59;;;7.88;90.25
71764;BME280;59602;52.142;5.408;2023-02-04T09:46:46;103831.19;;;7.89;89.86
71764;BME280;59602;52.142;5.408;2023-02-04T09:49:15;103838.25;;;7.90;89.78
71764;BME280;59602;52.142;5.408;2023-02-04T09:51:42;103833.34;;;7.93;89.52
71764;BME280;59602;52.142;5.408;2023-02-04T09:54:13;103831.72;;;7.92;89.19
71764;BME280;59602;52.142;5.408;2023-02-04T09:56:41;103828.44;;;7.95;89.15
71764;BME280;59602;52.142;5.408;2023-02-04T09:59:14;103838.94;;;8.01;89.04
71764;BME280;59602;52.142;5.408;2023-02-04T10:01:41;103834.81;;;8.09;88.47
71764;BME280;59602;52.142;5.408;2023-02-04T10:04:11;103836.56;;;8.19;88.22
71764;BME280;59602;52.142;5.408;2023-02-04T10:06:41;103849.78;;;8.25;87.43
71764;BME280;59602;52.142;5.408;2023-02-04T10:09:10;103856.00;;;8.26;87.11
71764;BME280;59602;52.142;5.408;2023-02-04T10:11:39;103846.19;;;8.30;87.60
71764;BME280;59602;52.142;5.408;2023-02-04T10:14:12;103855.66;;;8.32;87.04
71764;BME280;59602;52.142;5.408;2023-02-04T10:16:41;103853.78;;;8.33;86.60
71764;BME280;59602;52.142;5.408;2023-02-04T10:19:13;103850.19;;;8.38;86.48
71764;BME280;59602;52.142;5.408;2023-02-04T10:21:44;103850.16;;;8.43;86.10
71764;BME280;59602;52.142;5.408;2023-02-04T10:24:35;103850.91;;;8.48;85.89
71764;BME280;59602;52.142;5.408;2023-02-04T10:27:35;103852.16;;;8.56;85.66
71764;BME280;59602;52.142;5.408;2023-02-04T10:35:01;103856.13;;;8.64;85.25
71764;BME280;59602;52.142;5.408;2023-02-04T10:37:28;103861.19;;;8.70;84.77
71764;BME280;59602;52.142;5.408;2023-02-04T10:39:57;103860.81;;;8.77;84.16
71764;BME280;59602;52.142;5.408;2023-02-04T10:42:27;103857.03;;;8.78;83.90
71764;BME280;59602;52.142;5.408;2023-02-04T10:44:54;103859.47;;;8.80;83.63
71764;BME280;59602;52.142;5.408;2023-02-04T10:47:25;103860.19;;;8.85;83.75
71764;BME280;59602;52.142;5.408;2023-02-04T10:49:55;103859.03;;;8.91;83.01
71764;BME280;59602;52.142;5.408;2023-02-04T10:52:31;103863.84;;;8.94;82.79
71764;BME280;59602;52.142;5.408;2023-02-04T10:55:00;103860.84;;;8.96;82.23
71764;BME280;59602;52.142;5.408;2023-02-04T10:57:29;103864.28;;;9.02;82.16
71764;BME280;59602;52.142;5.408;2023-02-04T10:59:59;103859.09;;;9.05;82.50
71764;BME280;59602;52.142;5.408;2023-02-04T11:05:05;103861.94;;;8.95;81.61
71764;BME280;59602;52.142;5.408;2023-02-04T11:07:35;103866.66;;;8.89;81.89
71764;BME280;59602;52.142;5.408;2023-02-04T11:10:02;103862.63;;;8.87;81.55
71764;BME280;59602;52.142;5.408;2023-02-04T11:12:45;103870.22;;;8.85;81.91
71764;BME280;59602;52.142;5.408;2023-02-04T11:15:36;103867.00;;;8.83;81.87
71764;BME280;59602;52.142;5.408;2023-02-04T11:18:08;103860.78;;;8.82;81.43
71764;BME280;59602;52.142;5.408;2023-02-04T11:20:35;103864.88;;;8.80;81.09
71764;BME280;59602;52.142;5.408;2023-02-04T11:25:43;103860.47;;;8.84;81.35
71764;BME280;59602;52.142;5.408;2023-02-04T11:28:24;103861.44;;;8.93;81.05
71764;BME280;59602;52.142;5.408;2023-02-04T11:30:59;103860.84;;;8.96;80.33
71764;BME280;59602;52.142;5.408;2023-02-04T11:33:37;103857.84;;;8.98;80.62
71764;BME280;59602;52.142;5.408;2023-02-04T11:36:07;103862.41;;;9.02;80.81
71764;BME280;59602;52.142;5.408;2023-02-04T11:38:34;103855.25;;;9.06;80.45
71764;BME280;59602;52.142;5.408;2023-02-04T11:41:01;103853.28;;;9.12;80.74
71764;BME280;59602;52.142;5.408;2023-02-04T11:43:32;103850.47;;;9.17;80.33
71764;BME280;59602;52.142;5.408;2023-02-04T11:46:03;103852.81;;;9.24;81.06
71764;BME280;59602;52.142;5.408;2023-02-04T11:48:30;103856.78;;;9.31;80.47
71764;BME280;59602;52.142;5.408;2023-02-04T11:50:59;103856.72;;;9.37;79.66
71764;BME280;59602;52.142;5.408;2023-02-04T11:53:30;103858.25;;;9.43;78.05
71764;BME280;59602;52.142;5.408;2023-02-04T11:55:58;103856.03;;;9.45;76.64
71764;BME280;59602;52.142;5.408;2023-02-04T11:58:27;103850.59;;;9.45;73.84
71764;BME280;59602;52.142;5.408;2023-02-04T12:00:54;103850.38;;;9.41;74.33
71764;BME280;59602;52.142;5.408;2023-02-04T12:03:26;103856.63;;;9.42;74.57
71764;BME280;59602;52.142;5.408;2023-02-04T12:05:57;103855.81;;;9.41;75.71
71764;BME280;59602;52.142;5.408;2023-02-04T12:08:32;103851.78;;;9.39;76.20
71764;BME280;59602;52.142;5.408;2023-02-04T12:11:09;103854.78;;;9.37;76.92
71764;BME280;59602;52.142;5.408;2023-02-04T12:13:49;103858.91;;;9.34;76.71
71764;BME280;59602;52.142;5.408;2023-02-04T12:16:16;103861.91;;;9.33;76.42
71764;BME280;59602;52.142;5.408;2023-02-04T12:18:43;103865.44;;;9.33;76.16
71764;BME280;59602;52.142;5.408;2023-02-04T12:21:09;103864.06;;;9.36;75.58
71764;BME280;59602;52.142;5.408;2023-02-04T12:23:36;103865.38;;;9.39;74.97
71764;BME280;59602;52.142;5.408;2023-02-04T12:26:03;103867.19;;;9.43;74.43
71764;BME280;59602;52.142;5.408;2023-02-04T12:28:29;103864.69;;;9.47;74.72
71764;BME280;59602;52.142;5.408;2023-02-04T12:30:56;103876.28;;;9.52;75.11
71764;BME280;59602;52.142;5.408;2023-02-04T12:33:23;103869.44;;;9.55;74.52
71764;BME280;59602;52.142;5.408;2023-02-04T12:35:49;103865.31;;;9.57;74.20
71764;BME280;59602;52.142;5.408;2023-02-04T12:38:16;103865.53;;;9.61;74.53
71764;BME280;59602;52.142;5.408;2023-02-04T12:40:48;103863.03;;;9.65;73.73
71764;BME280;59602;52.142;5.408;2023-02-04T12:43:15;103862.44;;;9.68;73.55
71764;BME280;59602;52.142;5.408;2023-02-04T12:45:41;103855.09;;;9.68;73.70
71764;BME280;59602;52.142;5.408;2023-02-04T12:48:11;103868.09;;;9.71;73.54
71764;BME280;59602;52.142;5.408;2023-02-04T12:50:39;103868.09;;;9.71;73.99
71764;BME280;59602;52.142;5.408;2023-02-04T12:53:06;103857.50;;;9.70;73.69
71764;BME280;59602;52.142;5.408;2023-02-04T12:55:33;103854.50;;;9.71;73.92
71764;BME280;59602;52.142;5.408;2023-02-04T12:58:00;103862.84;;;9.75;73.96
71764;BME280;59602;52.142;5.408;2023-02-04T13:00:28;103858.72;;;9.77;73.85
71764;BME280;59602;52.142;5.408;2023-02-04T13:02:54;103858.72;;;9.77;73.80
71764;BME280;59602;52.142;5.408;2023-02-04T13:05:24;103854.13;;;9.78;73.80
71764;BME280;59602;52.142;5.408;2023-02-04T13:07:51;103858.72;;;9.77;73.25
71764;BME280;59602;52.142;5.408;2023-02-04T13:10:18;103856.00;;;9.77;73.64
71764;BME280;59602;52.142;5.408;2023-02-04T13:12:45;103854.13;;;9.78;73.37
71764;BME280;59602;52.142;5.408;2023-02-04T13:15:12;103854.91;;;9.79;74.02